sensor_id;sensor_type;location;lat;lon;timestamp;P1;durP1;ratioP1;P2;durP2;ratioP2
33740;SDS011;20065;48.380;10.892;2022-07-18T00:02:07;7.63;;;3.30;;
33740;SDS011;20065;48.380;10.892;2022-07-18T00:04:53;10.10;;;3.33;;
33740;SDS011;20065;48.380;10.892;2022-07-18T00:07:39;9.43;;;3.43;;
33740;SDS011;20065;48.380;10.892;2022-07-18T00:10:26;13.00;;;3.70;;
33740;SDS011;20065;48.380;10.892;2022-07-18T00:13:12;6.03;;;3.30;;
33740;SDS011;20065;48.380;10.892;2022-07-18T00:15:58;6.10;;;3.27;;
33740;SDS011;20065;48.380;10.892;2022-07-18T00:18:44;7.00;;;2.90;;
33740;SDS011;20065;48.380;10.892;2022-07-18T00:21:30;6.83;;;2.90;;
33740;SDS011;20065;48.380;10.892;2022-07-18T00:24:17;6.87;;;3.20;;
33740;SDS011;20065;48.380;10.892;2022-07-18T00:27:03;8.23;;;3.00;;
33740;SDS011;20065;48.380;10.892;2022-07-18T00:29:51;7.20;;;2.77;;
33740;SDS011;20065;48.380;10.892;2022-07-18T00:32:37;7.23;;;3.10;;
33740;SDS011;20065;48.380;10.892;2022-07-18T00:35:23;9.43;;;3.03;;
33740;SDS011;20065;48.380;10.892;2022-07-18T00:38:10;9.03;;;3.00;;
33740;SDS011;20065;48.380;10.892;2022-07-18T00:40:56;7.77;;;3.53;;
33740;SDS011;20065;48.380;10.892;2022-07-18T00:43:42;6.33;;;3.20;;
33740;SDS011;20065;48.380;10.892;2022-07-18T00:46:29;8.33;;;2.97;;
33740;SDS011;20065;48.380;10.892;2022-07-18T00:49:15;6.83;;;2.70;;
33740;SDS011;20065;48.380;10.892;2022-07-18T00:52:02;8.93;;;3.17;;
33740;SDS011;20065;48.380;10.892;2022-07-18T00:54:48;6.63;;;3.63;;
33740;SDS011;20065;48.380;10.892;2022-07-18T00:57:35;9.70;;;3.60;;
33740;SDS011;20065;48.380;10.892;2022-07-18T01:00:22;8.10;;;3.30;;
33740;SDS011;20065;48.380;10.892;2022-07-18T01:03:26;10.20;;;3.63;;
33740;SDS011;20065;48.380;10.892;2022-07-18T01:06:13;9.10;;;3.30;;
33740;SDS011;20065;48.380;10.892;2022-07-18T01:08:59;10.77;;;3.50;;
33740;SDS011;20065;48.380;10.892;2022-07-18T01:11:46;10.40;;;3.70;;
33740;SDS011;20065;48.380;10.892;2022-07-18T01:14:33;8.43;;;3.60;;
33740;SDS011;20065;48.380;10.892;2022-07-18T01:17:20;8.67;;;4.00;;
33740;SDS011;20065;48.380;10.892;2022-07-18T01:20:06;8.27;;;3.93;;
33740;SDS011;20065;48.380;10.892;2022-07-18T01:22:53;6.50;;;3.00;;
33740;SDS011;20065;48.380;10.892;2022-07-18T01:25:39;14.50;;;4.13;;
33740;SDS011;20065;48.380;10.892;2022-07-18T01:28:25;10.13;;;3.27;;
33740;SDS011;20065;48.380;10.892;2022-07-18T01:31:12;10.13;;;3.20;;
33740;SDS011;20065;48.380;10.892;2022-07-18T01:33:59;7.77;;;3.30;;
33740;SDS011;20065;48.380;10.892;2022-07-18T01:36:45;10.33;;;3.43;;
33740;SDS011;20065;48.380;10.892;2022-07-18T01:39:32;8.37;;;3.80;;
33740;SDS011;20065;48.380;10.892;2022-07-18T01:42:18;7.27;;;3.27;;
33740;SDS011;20065;48.380;10.892;2022-07-18T01:45:05;10.70;;;3.50;;
33740;SDS011;20065;48.380;10.892;2022-07-18T01:47:51;8.53;;;3.60;;
33740;SDS011;20065;48.380;10.892;2022-07-18T01:50:38;7.67;;;3.20;;
33740;SDS011;20065;48.380;10.892;2022-07-18T01:53:24;7.00;;;3.40;;
33740;SDS011;20065;48.380;10.892;2022-07-18T01:56:11;8.50;;;3.30;;
33740;SDS011;20065;48.380;10.892;2022-07-18T01:59:00;7.77;;;3.83;;
33740;SDS011;20065;48.380;10.892;2022-07-18T02:01:47;7.80;;;3.43;;
33740;SDS011;20065;48.380;10.892;2022-07-18T02:04:33;11.87;;;4.43;;
33740;SDS011;20065;48.380;10.892;2022-07-18T02:07:39;7.17;;;3.57;;
33740;SDS011;20065;48.380;10.892;2022-07-18T02:10:27;11.43;;;3.40;;
33740;SDS011;20065;48.380;10.892;2022-07-18T02:13:13;8.07;;;3.63;;
33740;SDS011;20065;48.380;10.892;2022-07-18T02:15:59;8.27;;;3.67;;
33740;SDS011;20065;48.380;10.892;2022-07-18T02:18:46;7.33;;;3.27;;
33740;SDS011;20065;48.380;10.892;2022-07-18T02:21:32;15.70;;;3.93;;
33740;SDS011;20065;48.380;10.892;2022-07-18T02:24:18;8.67;;;3.47;;
33740;SDS011;20065;48.380;10.892;2022-07-18T02:27:04;7.50;;;3.83;;
33740;SDS011;20065;48.380;10.892;2022-07-18T02:29:51;7.50;;;3.67;;
33740;SDS011;20065;48.380;10.892;2022-07-18T02:32:37;7.90;;;2.80;;
33740;SDS011;20065;48.380;10.892;2022-07-18T02:35:23;9.80;;;3.40;;
33740;SDS011;20065;48.380;10.892;2022-07-18T02:38:09;6.60;;;3.13;;
33740;SDS011;20065;48.380;10.892;2022-07-18T02:40:55;8.30;;;3.70;;
33740;SDS011;20065;48.380;10.892;2022-07-18T02:43:42;8.70;;;3.90;;
33740;SDS011;20065;48.380;10.892;2022-07-18T02:46:28;8.10;;;3.20;;
33740;SDS011;20065;48.380;10.892;2022-07-18T02:49:14;7.80;;;3.60;;
33740;SDS011;20065;48.380;10.892;2022-07-18T02:52:12;7.80;;;2.80;;
33740;SDS011;20065;48.380;10.892;2022-07-18T02:54:58;8.00;;;3.23;;
33740;SDS011;20065;48.380;10.892;2022-07-18T02:57:46;7.33;;;2.93;;
33740;SDS011;20065;48.380;10.892;2022-07-18T03:00:32;7.93;;;3.60;;
33740;SDS011;20065;48.380;10.892;2022-07-18T03:03:18;6.13;;;3.00;;
33740;SDS011;20065;48.380;10.892;2022-07-18T03:06:04;8.80;;;3.70;;
33740;SDS011;20065;48.380;10.892;2022-07-18T03:08:51;7.77;;;3.20;;
33740;SDS011;20065;48.380;10.892;2022-07-18T03:11:37;13.03;;;3.53;;
33740;SDS011;20065;48.380;10.892;2022-07-18T03:14:23;7.07;;;3.57;;
33740;SDS011;20065;48.380;10.892;2022-07-18T03:17:10;7.17;;;3.30;;
33740;SDS011;20065;48.380;10.892;2022-07-18T03:19:56;7.20;;;3.27;;
33740;SDS011;20065;48.380;10.892;2022-07-18T03:22:42;8.90;;;3.07;;
33740;SDS011;20065;48.380;10.892;2022-07-18T03:25:28;8.23;;;3.67;;
33740;SDS011;20065;48.380;10.892;2022-07-18T03:28:15;8.10;;;3.63;;
33740;SDS011;20065;48.380;10.892;2022-07-18T03:31:01;7.20;;;3.10;;
33740;SDS011;20065;48.380;10.892;2022-07-18T03:33:47;7.40;;;3.50;;
33740;SDS011;20065;48.380;10.892;2022-07-18T03:36:33;11.07;;;3.70;;
33740;SDS011;20065;48.380;10.892;2022-07-18T03:39:19;7.70;;;4.43;;
33740;SDS011;20065;48.380;10.892;2022-07-18T03:42:06;8.60;;;3.40;;
33740;SDS011;20065;48.380;10.892;2022-07-18T03:44:52;7.63;;;3.23;;
33740;SDS011;20065;48.380;10.892;2022-07-18T03:47:38;11.03;;;3.60;;
33740;SDS011;20065;48.380;10.892;2022-07-18T03:50:24;7.83;;;3.97;;
33740;SDS011;20065;48.380;10.892;2022-07-18T03:53:10;7.70;;;3.93;;
33740;SDS011;20065;48.380;10.892;2022-07-18T03:55:57;7.67;;;3.93;;
33740;SDS011;20065;48.380;10.892;2022-07-18T03:58:43;7.40;;;3.60;;
33740;SDS011;20065;48.380;10.892;2022-07-18T04:01:30;6.80;;;3.53;;
33740;SDS011;20065;48.380;10.892;2022-07-18T04:04:16;12.10;;;3.30;;
33740;SDS011;20065;48.380;10.892;2022-07-18T04:07:02;8.50;;;3.67;;
33740;SDS011;20065;48.380;10.892;2022-07-18T04:09:49;9.47;;;4.13;;
33740;SDS011;20065;48.380;10.892;2022-07-18T04:12:43;11.10;;;3.53;;
33740;SDS011;20065;48.380;10.892;2022-07-18T04:15:33;9.53;;;3.90;;
33740;SDS011;20065;48.380;10.892;2022-07-18T04:18:19;7.70;;;3.90;;
33740;SDS011;20065;48.380;10.892;2022-07-18T04:21:06;9.27;;;3.63;;
33740;SDS011;20065;48.380;10.892;2022-07-18T04:23:52;9.60;;;3.40;;
33740;SDS011;20065;48.380;10.892;2022-07-18T04:26:38;13.57;;;4.20;;
33740;SDS011;20065;48.380;10.892;2022-07-18T04:29:24;9.47;;;2.93;;
33740;SDS011;20065;48.380;10.892;2022-07-18T04:32:10;9.20;;;3.60;;
33740;SDS011;20065;48.380;10.892;2022-07-18T04:34:57;7.23;;;3.80;;
33740;SDS011;20065;48.380;10.892;2022-07-18T04:37:43;10.20;;;3.67;;
33740;SDS011;20065;48.380;10.892;2022-07-18T04:40:29;8.13;;;3.77;;
33740;SDS011;20065;48.380;10.892;2022-07-18T04:43:15;12.93;;;4.10;;
33740;SDS011;20065;48.380;10.892;2022-07-18T04:46:02;14.30;;;3.87;;
33740;SDS011;20065;48.380;10.892;2022-07-18T04:48:48;17.23;;;4.67;;
33740;SDS011;20065;48.380;10.892;2022-07-18T04:51:34;9.23;;;4.17;;
33740;SDS011;20065;48.380;10.892;2022-07-18T04:54:20;8.57;;;4.07;;
33740;SDS011;20065;48.380;10.892;2022-07-18T04:57:06;11.53;;;4.17;;
33740;SDS011;20065;48.380;10.892;2022-07-18T04:59:54;10.63;;;4.37;;
33740;SDS011;20065;48.380;10.892;2022-07-18T05:02:44;14.20;;;4.23;;
33740;SDS011;20065;48.380;10.892;2022-07-18T05:05:32;8.67;;;4.13;;
33740;SDS011;20065;48.380;10.892;2022-07-18T05:08:18;9.47;;;4.47;;
33740;SDS011;20065;48.380;10.892;2022-07-18T05:11:04;10.60;;;4.60;;
33740;SDS011;20065;48.380;10.892;2022-07-18T05:13:50;13.17;;;4.90;;
33740;SDS011;20065;48.380;10.892;2022-07-18T05:16:36;10.97;;;5.20;;
33740;SDS011;20065;48.380;10.892;2022-07-18T05:19:22;11.70;;;5.70;;
33740;SDS011;20065;48.380;10.892;2022-07-18T05:22:08;11.77;;;4.77;;
33740;SDS011;20065;48.380;10.892;2022-07-18T05:24:54;14.10;;;5.00;;
33740;SDS011;20065;48.380;10.892;2022-07-18T05:27:40;18.00;;;5.20;;
33740;SDS011;20065;48.380;10.892;2022-07-18T05:30:27;21.53;;;5.30;;
33740;SDS011;20065;48.380;10.892;2022-07-18T05:33:13;11.40;;;4.90;;
33740;SDS011;20065;48.380;10.892;2022-07-18T05:36:00;11.90;;;5.33;;
33740;SDS011;20065;48.380;10.892;2022-07-18T05:38:46;12.43;;;5.30;;
33740;SDS011;20065;48.380;10.892;2022-07-18T05:41:32;11.93;;;5.30;;
33740;SDS011;20065;48.380;10.892;2022-07-18T05:44:21;20.27;;;4.80;;
33740;SDS011;20065;48.380;10.892;2022-07-18T05:47:07;14.73;;;6.23;;
33740;SDS011;20065;48.380;10.892;2022-07-18T05:49:53;12.00;;;6.30;;
33740;SDS011;20065;48.380;10.892;2022-07-18T05:52:39;16.40;;;7.87;;
33740;SDS011;20065;48.380;10.892;2022-07-18T05:55:26;11.90;;;7.17;;
33740;SDS011;20065;48.380;10.892;2022-07-18T05:58:12;14.40;;;6.80;;
33740;SDS011;20065;48.380;10.892;2022-07-18T06:00:58;14.67;;;8.37;;
33740;SDS011;20065;48.380;10.892;2022-07-18T06:03:44;25.27;;;11.10;;
33740;SDS011;20065;48.380;10.892;2022-07-18T06:06:31;19.87;;;10.70;;
33740;SDS011;20065;48.380;10.892;2022-07-18T06:09:17;25.50;;;10.30;;
33740;SDS011;20065;48.380;10.892;2022-07-18T06:12:03;19.73;;;10.57;;
33740;SDS011;20065;48.380;10.892;2022-07-18T06:14:50;15.33;;;6.67;;
33740;SDS011;20065;48.380;10.892;2022-07-18T06:17:36;13.97;;;5.87;;
33740;SDS011;20065;48.380;10.892;2022-07-18T06:20:22;17.10;;;5.80;;
33740;SDS011;20065;48.380;10.892;2022-07-18T06:23:09;8.50;;;4.57;;
33740;SDS011;20065;48.380;10.892;2022-07-18T06:25:55;10.40;;;4.70;;
33740;SDS011;20065;48.380;10.892;2022-07-18T06:28:42;8.30;;;4.43;;
33740;SDS011;20065;48.380;10.892;2022-07-18T06:31:28;12.33;;;4.77;;
33740;SDS011;20065;48.380;10.892;2022-07-18T06:34:14;10.63;;;4.70;;
33740;SDS011;20065;48.380;10.892;2022-07-18T06:37:00;7.30;;;4.00;;
33740;SDS011;20065;48.380;10.892;2022-07-18T06:39:47;8.23;;;4.20;;
33740;SDS011;20065;48.380;10.892;2022-07-18T06:42:33;12.17;;;4.20;;
33740;SDS011;20065;48.380;10.892;2022-07-18T06:45:19;16.80;;;4.60;;
33740;SDS011;20065;48.380;10.892;2022-07-18T06:48:05;13.50;;;4.53;;
33740;SDS011;20065;48.380;10.892;2022-07-18T06:50:52;13.63;;;5.10;;
33740;SDS011;20065;48.380;10.892;2022-07-18T06:53:38;14.17;;;4.00;;
33740;SDS011;20065;48.380;10.892;2022-07-18T06:56:24;8.27;;;3.83;;
33740;SDS011;20065;48.380;10.892;2022-07-18T06:59:11;11.87;;;4.13;;
33740;SDS011;20065;48.380;10.892;2022-07-18T07:01:57;8.47;;;3.93;;
33740;SDS011;20065;48.380;10.892;2022-07-18T07:04:43;9.33;;;5.63;;
33740;SDS011;20065;48.380;10.892;2022-07-18T07:07:29;11.80;;;5.40;;
33740;SDS011;20065;48.380;10.892;2022-07-18T07:10:16;11.00;;;5.50;;
33740;SDS011;20065;48.380;10.892;2022-07-18T07:13:03;11.07;;;5.00;;
33740;SDS011;20065;48.380;10.892;2022-07-18T07:15:49;9.00;;;4.37;;
33740;SDS011;20065;48.380;10.892;2022-07-18T07:18:35;11.23;;;4.30;;
33740;SDS011;20065;48.380;10.892;2022-07-18T07:21:22;12.40;;;5.10;;
33740;SDS011;20065;48.380;10.892;2022-07-18T07:24:08;6.63;;;3.80;;
33740;SDS011;20065;48.380;10.892;2022-07-18T07:26:54;7.07;;;3.30;;
33740;SDS011;20065;48.380;10.892;2022-07-18T07:29:40;7.67;;;4.07;;
33740;SDS011;20065;48.380;10.892;2022-07-18T07:32:26;9.50;;;3.70;;
33740;SDS011;20065;48.380;10.892;2022-07-18T07:35:13;7.37;;;3.13;;
33740;SDS011;20065;48.380;10.892;2022-07-18T07:38:00;7.80;;;3.33;;
33740;SDS011;20065;48.380;10.892;2022-07-18T07:40:46;8.83;;;3.60;;
33740;SDS011;20065;48.380;10.892;2022-07-18T07:43:33;8.10;;;3.20;;
33740;SDS011;20065;48.380;10.892;2022-07-18T07:46:21;11.60;;;2.70;;
33740;SDS011;20065;48.380;10.892;2022-07-18T07:49:07;7.77;;;3.30;;
33740;SDS011;20065;48.380;10.892;2022-07-18T07:51:54;11.07;;;4.00;;
33740;SDS011;20065;48.380;10.892;2022-07-18T07:54:40;8.53;;;3.37;;
33740;SDS011;20065;48.380;10.892;2022-07-18T07:57:26;16.20;;;3.10;;
33740;SDS011;20065;48.380;10.892;2022-07-18T08:00:13;7.80;;;3.30;;
33740;SDS011;20065;48.380;10.892;2022-07-18T08:03:01;7.07;;;2.73;;
33740;SDS011;20065;48.380;10.892;2022-07-18T08:05:52;48.10;;;4.63;;
33740;SDS011;20065;48.380;10.892;2022-07-18T08:08:38;9.70;;;2.47;;
33740;SDS011;20065;48.380;10.892;2022-07-18T08:11:24;7.50;;;2.20;;
33740;SDS011;20065;48.380;10.892;2022-07-18T08:14:10;6.00;;;2.40;;
33740;SDS011;20065;48.380;10.892;2022-07-18T08:16:56;4.87;;;2.17;;
33740;SDS011;20065;48.380;10.892;2022-07-18T08:19:42;5.67;;;2.90;;
33740;SDS011;20065;48.380;10.892;2022-07-18T08:22:28;6.80;;;2.20;;
33740;SDS011;20065;48.380;10.892;2022-07-18T08:25:15;7.70;;;3.23;;
33740;SDS011;20065;48.380;10.892;2022-07-18T08:28:01;5.90;;;2.27;;
33740;SDS011;20065;48.380;10.892;2022-07-18T08:30:48;5.67;;;2.70;;
33740;SDS011;20065;48.380;10.892;2022-07-18T08:33:34;6.97;;;2.73;;
33740;SDS011;20065;48.380;10.892;2022-07-18T08:36:21;5.30;;;2.23;;
33740;SDS011;20065;48.380;10.892;2022-07-18T08:39:07;5.90;;;2.37;;
33740;SDS011;20065;48.380;10.892;2022-07-18T08:41:53;5.30;;;1.93;;
33740;SDS011;20065;48.380;10.892;2022-07-18T08:44:41;8.23;;;2.07;;
33740;SDS011;20065;48.380;10.892;2022-07-18T08:47:28;8.43;;;2.57;;
33740;SDS011;20065;48.380;10.892;2022-07-18T08:50:14;6.70;;;2.43;;
33740;SDS011;20065;48.380;10.892;2022-07-18T08:53:01;6.90;;;1.83;;
33740;SDS011;20065;48.380;10.892;2022-07-18T08:55:48;6.27;;;2.00;;
33740;SDS011;20065;48.380;10.892;2022-07-18T08:58:34;6.90;;;1.90;;
33740;SDS011;20065;48.380;10.892;2022-07-18T09:01:21;9.57;;;2.00;;
33740;SDS011;20065;48.380;10.892;2022-07-18T09:04:07;4.97;;;1.70;;
33740;SDS011;20065;48.380;10.892;2022-07-18T09:07:05;14.63;;;1.90;;
33740;SDS011;20065;48.380;10.892;2022-07-18T09:09:54;6.47;;;2.00;;
33740;SDS011;20065;48.380;10.892;2022-07-18T09:12:56;5.07;;;1.40;;
33740;SDS011;20065;48.380;10.892;2022-07-18T09:18:50;6.20;;;2.17;;
33740;SDS011;20065;48.380;10.892;2022-07-18T09:21:36;6.23;;;2.07;;
33740;SDS011;20065;48.380;10.892;2022-07-18T09:24:23;5.07;;;1.63;;
33740;SDS011;20065;48.380;10.892;2022-07-18T09:27:22;5.83;;;1.77;;
33740;SDS011;20065;48.380;10.892;2022-07-18T09:33:15;9.53;;;1.90;;
33740;SDS011;20065;48.380;10.892;2022-07-18T09:36:01;6.13;;;2.10;;
33740;SDS011;20065;48.380;10.892;2022-07-18T09:38:48;4.33;;;1.80;;
33740;SDS011;20065;48.380;10.892;2022-07-18T09:41:34;8.70;;;1.67;;
33740;SDS011;20065;48.380;10.892;2022-07-18T09:44:20;3.90;;;1.87;;
33740;SDS011;20065;48.380;10.892;2022-07-18T09:47:06;4.80;;;1.90;;
33740;SDS011;20065;48.380;10.892;2022-07-18T09:49:53;4.93;;;2.10;;
33740;SDS011;20065;48.380;10.892;2022-07-18T09:52:40;4.40;;;1.90;;
33740;SDS011;20065;48.380;10.892;2022-07-18T09:55:26;4.90;;;1.73;;
33740;SDS011;20065;48.380;10.892;2022-07-18T09:58:14;5.47;;;1.77;;
33740;SDS011;20065;48.380;10.892;2022-07-18T10:01:03;8.07;;;1.80;;
33740;SDS011;20065;48.380;10.892;2022-07-18T10:03:51;6.60;;;2.10;;
33740;SDS011;20065;48.380;10.892;2022-07-18T10:06:37;4.60;;;2.03;;
33740;SDS011;20065;48.380;10.892;2022-07-18T10:09:24;23.80;;;2.80;;
33740;SDS011;20065;48.380;10.892;2022-07-18T10:12:12;18.00;;;2.30;;
33740;SDS011;20065;48.380;10.892;2022-07-18T10:15:00;9.03;;;1.80;;
33740;SDS011;20065;48.380;10.892;2022-07-18T10:17:47;7.47;;;2.27;;
33740;SDS011;20065;48.380;10.892;2022-07-18T10:20:37;4.37;;;1.70;;
33740;SDS011;20065;48.380;10.892;2022-07-18T10:26:21;7.60;;;1.97;;
33740;SDS011;20065;48.380;10.892;2022-07-18T10:29:09;4.30;;;1.70;;
33740;SDS011;20065;48.380;10.892;2022-07-18T10:32:00;7.47;;;2.20;;
33740;SDS011;20065;48.380;10.892;2022-07-18T10:34:50;6.30;;;1.90;;
33740;SDS011;20065;48.380;10.892;2022-07-18T10:37:36;4.07;;;1.70;;
33740;SDS011;20065;48.380;10.892;2022-07-18T10:40:24;8.20;;;1.70;;
33740;SDS011;20065;48.380;10.892;2022-07-18T10:46:22;5.00;;;1.70;;
33740;SDS011;20065;48.380;10.892;2022-07-18T10:49:08;8.63;;;2.00;;
33740;SDS011;20065;48.380;10.892;2022-07-18T10:51:54;4.83;;;1.57;;
33740;SDS011;20065;48.380;10.892;2022-07-18T10:54:40;7.20;;;2.10;;
33740;SDS011;20065;48.380;10.892;2022-07-18T10:57:26;6.40;;;2.07;;
33740;SDS011;20065;48.380;10.892;2022-07-18T11:00:14;6.20;;;2.17;;
33740;SDS011;20065;48.380;10.892;2022-07-18T11:03:06;6.83;;;2.07;;
33740;SDS011;20065;48.380;10.892;2022-07-18T11:05:53;7.10;;;1.93;;
33740;SDS011;20065;48.380;10.892;2022-07-18T11:08:41;13.20;;;1.67;;
33740;SDS011;20065;48.380;10.892;2022-07-18T11:11:27;7.97;;;1.90;;
33740;SDS011;20065;48.380;10.892;2022-07-18T11:14:39;3.87;;;1.70;;
33740;SDS011;20065;48.380;10.892;2022-07-18T11:20:40;3.83;;;1.43;;
33740;SDS011;20065;48.380;10.892;2022-07-18T11:23:27;5.83;;;1.50;;
33740;SDS011;20065;48.380;10.892;2022-07-18T11:26:14;4.80;;;1.60;;
33740;SDS011;20065;48.380;10.892;2022-07-18T11:29:06;6.60;;;1.60;;
33740;SDS011;20065;48.380;10.892;2022-07-18T11:31:55;5.33;;;1.40;;
33740;SDS011;20065;48.380;10.892;2022-07-18T11:34:48;5.13;;;1.43;;
33740;SDS011;20065;48.380;10.892;2022-07-18T11:37:35;5.83;;;1.50;;
33740;SDS011;20065;48.380;10.892;2022-07-18T11:40:22;5.43;;;1.60;;
33740;SDS011;20065;48.380;10.892;2022-07-18T11:43:08;3.50;;;1.43;;
33740;SDS011;20065;48.380;10.892;2022-07-18T11:46:02;4.10;;;1.60;;
33740;SDS011;20065;48.380;10.892;2022-07-18T11:48:59;5.03;;;1.60;;
33740;SDS011;20065;48.380;10.892;2022-07-18T11:51:51;7.00;;;1.97;;
33740;SDS011;20065;48.380;10.892;2022-07-18T11:54:37;3.33;;;1.40;;
33740;SDS011;20065;48.380;10.892;2022-07-18T11:57:27;5.17;;;1.57;;
33740;SDS011;20065;48.380;10.892;2022-07-18T12:00:15;5.77;;;2.10;;
33740;SDS011;20065;48.380;10.892;2022-07-18T12:06:06;5.77;;;1.97;;
33740;SDS011;20065;48.380;10.892;2022-07-18T12:09:05;4.00;;;1.50;;
33740;SDS011;20065;48.380;10.892;2022-07-18T12:11:51;7.33;;;1.77;;
33740;SDS011;20065;48.380;10.892;2022-07-18T12:14:38;4.67;;;2.00;;
33740;SDS011;20065;48.380;10.892;2022-07-18T12:17:25;4.57;;;1.50;;
33740;SDS011;20065;48.380;10.892;2022-07-18T12:20:12;4.57;;;1.30;;
33740;SDS011;20065;48.380;10.892;2022-07-18T12:25:56;4.30;;;1.90;;
33740;SDS011;20065;48.380;10.892;2022-07-18T12:28:46;3.40;;;1.37;;
33740;SDS011;20065;48.380;10.892;2022-07-18T12:31:51;4.80;;;1.60;;
33740;SDS011;20065;48.380;10.892;2022-07-18T12:34:37;3.83;;;1.90;;
33740;SDS011;20065;48.380;10.892;2022-07-18T12:37:40;4.27;;;1.80;;
33740;SDS011;20065;48.380;10.892;2022-07-18T12:41:12;4.27;;;1.87;;
33740;SDS011;20065;48.380;10.892;2022-07-18T12:43:44;4.63;;;1.60;;
33740;SDS011;20065;48.380;10.892;2022-07-18T12:46:31;7.83;;;1.80;;
33740;SDS011;20065;48.380;10.892;2022-07-18T12:49:17;5.20;;;1.80;;
33740;SDS011;20065;48.380;10.892;2022-07-18T12:52:03;3.47;;;1.40;;
33740;SDS011;20065;48.380;10.892;2022-07-18T12:54:50;3.60;;;1.47;;
33740;SDS011;20065;48.380;10.892;2022-07-18T12:57:36;3.73;;;1.90;;
33740;SDS011;20065;48.380;10.892;2022-07-18T13:00:22;9.73;;;1.80;;
33740;SDS011;20065;48.380;10.892;2022-07-18T13:03:09;4.70;;;1.97;;
33740;SDS011;20065;48.380;10.892;2022-07-18T13:05:56;3.60;;;1.47;;
33740;SDS011;20065;48.380;10.892;2022-07-18T13:08:42;5.83;;;1.50;;
33740;SDS011;20065;48.380;10.892;2022-07-18T13:11:29;5.17;;;1.40;;
33740;SDS011;20065;48.380;10.892;2022-07-18T13:14:16;5.37;;;1.97;;
33740;SDS011;20065;48.380;10.892;2022-07-18T13:17:02;6.53;;;1.63;;
33740;SDS011;20065;48.380;10.892;2022-07-18T13:19:48;4.17;;;1.73;;
33740;SDS011;20065;48.380;10.892;2022-07-18T13:22:35;3.80;;;1.53;;
33740;SDS011;20065;48.380;10.892;2022-07-18T13:25:24;4.73;;;1.40;;
33740;SDS011;20065;48.380;10.892;2022-07-18T13:28:10;4.70;;;1.57;;
33740;SDS011;20065;48.380;10.892;2022-07-18T13:30:56;4.50;;;1.40;;
33740;SDS011;20065;48.380;10.892;2022-07-18T13:33:42;4.03;;;1.90;;
33740;SDS011;20065;48.380;10.892;2022-07-18T13:36:29;4.03;;;1.50;;
33740;SDS011;20065;48.380;10.892;2022-07-18T13:39:18;3.43;;;1.63;;
33740;SDS011;20065;48.380;10.892;2022-07-18T13:42:05;3.40;;;1.30;;
33740;SDS011;20065;48.380;10.892;2022-07-18T13:44:51;4.60;;;1.60;;
33740;SDS011;20065;48.380;10.892;2022-07-18T13:47:41;3.57;;;1.60;;
33740;SDS011;20065;48.380;10.892;2022-07-18T13:50:28;4.43;;;1.60;;
33740;SDS011;20065;48.380;10.892;2022-07-18T13:53:14;5.10;;;1.63;;
33740;SDS011;20065;48.380;10.892;2022-07-18T13:56:00;7.70;;;1.83;;
33740;SDS011;20065;48.380;10.892;2022-07-18T13:58:47;5.50;;;1.70;;
33740;SDS011;20065;48.380;10.892;2022-07-18T14:01:33;4.87;;;2.30;;
33740;SDS011;20065;48.380;10.892;2022-07-18T14:04:19;5.70;;;1.90;;
33740;SDS011;20065;48.380;10.892;2022-07-18T14:07:05;4.33;;;1.73;;
33740;SDS011;20065;48.380;10.892;2022-07-18T14:09:52;4.53;;;1.33;;
33740;SDS011;20065;48.380;10.892;2022-07-18T14:12:39;4.87;;;1.90;;
33740;SDS011;20065;48.380;10.892;2022-07-18T14:15:26;3.97;;;1.70;;
33740;SDS011;20065;48.380;10.892;2022-07-18T14:18:13;3.67;;;1.70;;
33740;SDS011;20065;48.380;10.892;2022-07-18T14:20:59;5.40;;;1.93;;
33740;SDS011;20065;48.380;10.892;2022-07-18T14:23:45;5.20;;;1.60;;
33740;SDS011;20065;48.380;10.892;2022-07-18T14:26:31;4.00;;;1.90;;
33740;SDS011;20065;48.380;10.892;2022-07-18T14:29:17;9.93;;;1.80;;
33740;SDS011;20065;48.380;10.892;2022-07-18T14:32:04;4.80;;;1.57;;
33740;SDS011;20065;48.380;10.892;2022-07-18T14:34:50;3.33;;;1.67;;
33740;SDS011;20065;48.380;10.892;2022-07-18T14:37:37;6.10;;;2.20;;
33740;SDS011;20065;48.380;10.892;2022-07-18T14:40:23;5.70;;;1.80;;
33740;SDS011;20065;48.380;10.892;2022-07-18T14:43:10;3.50;;;1.60;;
33740;SDS011;20065;48.380;10.892;2022-07-18T14:45:56;5.73;;;1.70;;
33740;SDS011;20065;48.380;10.892;2022-07-18T14:48:42;4.03;;;1.53;;
33740;SDS011;20065;48.380;10.892;2022-07-18T14:51:28;3.93;;;1.83;;
33740;SDS011;20065;48.380;10.892;2022-07-18T14:54:14;6.90;;;1.60;;
33740;SDS011;20065;48.380;10.892;2022-07-18T14:57:01;4.60;;;1.97;;
33740;SDS011;20065;48.380;10.892;2022-07-18T14:59:48;6.33;;;1.57;;
33740;SDS011;20065;48.380;10.892;2022-07-18T15:02:35;6.50;;;1.83;;
33740;SDS011;20065;48.380;10.892;2022-07-18T15:05:24;4.67;;;1.87;;
33740;SDS011;20065;48.380;10.892;2022-07-18T15:08:10;6.03;;;1.60;;
33740;SDS011;20065;48.380;10.892;2022-07-18T15:10:56;13.33;;;2.33;;
33740;SDS011;20065;48.380;10.892;2022-07-18T15:13:43;7.73;;;1.70;;
33740;SDS011;20065;48.380;10.892;2022-07-18T15:16:30;5.40;;;1.63;;
33740;SDS011;20065;48.380;10.892;2022-07-18T15:19:16;3.80;;;1.40;;
33740;SDS011;20065;48.380;10.892;2022-07-18T15:22:02;6.43;;;1.80;;
33740;SDS011;20065;48.380;10.892;2022-07-18T15:24:50;5.40;;;1.83;;
33740;SDS011;20065;48.380;10.892;2022-07-18T15:27:36;4.00;;;1.40;;
33740;SDS011;20065;48.380;10.892;2022-07-18T15:30:22;7.70;;;1.80;;
33740;SDS011;20065;48.380;10.892;2022-07-18T15:33:09;5.50;;;1.67;;
33740;SDS011;20065;48.380;10.892;2022-07-18T15:35:55;5.27;;;1.60;;
33740;SDS011;20065;48.380;10.892;2022-07-18T15:38:41;6.57;;;1.70;;
33740;SDS011;20065;48.380;10.892;2022-07-18T15:41:28;5.00;;;1.80;;
33740;SDS011;20065;48.380;10.892;2022-07-18T15:44:14;5.00;;;1.53;;
33740;SDS011;20065;48.380;10.892;2022-07-18T15:47:00;5.90;;;1.80;;
33740;SDS011;20065;48.380;10.892;2022-07-18T15:49:46;8.10;;;1.80;;
33740;SDS011;20065;48.380;10.892;2022-07-18T15:52:32;6.10;;;1.63;;
33740;SDS011;20065;48.380;10.892;2022-07-18T15:55:21;4.70;;;2.00;;
33740;SDS011;20065;48.380;10.892;2022-07-18T15:58:07;10.37;;;1.80;;
33740;SDS011;20065;48.380;10.892;2022-07-18T16:00:53;5.60;;;1.70;;
33740;SDS011;20065;48.380;10.892;2022-07-18T16:03:39;6.13;;;2.20;;
33740;SDS011;20065;48.380;10.892;2022-07-18T16:06:26;6.37;;;1.97;;
33740;SDS011;20065;48.380;10.892;2022-07-18T16:09:12;4.77;;;1.80;;
33740;SDS011;20065;48.380;10.892;2022-07-18T16:11:58;5.97;;;1.97;;
33740;SDS011;20065;48.380;10.892;2022-07-18T16:14:44;5.53;;;2.10;;
33740;SDS011;20065;48.380;10.892;2022-07-18T16:17:31;6.17;;;1.73;;
33740;SDS011;20065;48.380;10.892;2022-07-18T16:20:18;5.17;;;2.00;;
33740;SDS011;20065;48.380;10.892;2022-07-18T16:23:04;4.70;;;1.93;;
33740;SDS011;20065;48.380;10.892;2022-07-18T16:25:50;5.70;;;1.70;;
33740;SDS011;20065;48.380;10.892;2022-07-18T16:28:36;5.60;;;1.60;;
33740;SDS011;20065;48.380;10.892;2022-07-18T16:31:22;3.80;;;1.50;;
33740;SDS011;20065;48.380;10.892;2022-07-18T16:34:08;10.90;;;2.03;;
33740;SDS011;20065;48.380;10.892;2022-07-18T16:36:55;7.33;;;1.87;;
33740;SDS011;20065;48.380;10.892;2022-07-18T16:39:42;6.37;;;1.90;;
33740;SDS011;20065;48.380;10.892;2022-07-18T16:42:28;4.13;;;1.80;;
33740;SDS011;20065;48.380;10.892;2022-07-18T16:45:15;8.37;;;2.10;;
33740;SDS011;20065;48.380;10.892;2022-07-18T16:48:01;5.30;;;1.90;;
33740;SDS011;20065;48.380;10.892;2022-07-18T16:50:48;3.90;;;1.97;;